Time;durP1;ratioP1;P1;durP2;ratioP2;P2;SDS_P1;SDS_P2;PMS_P1;PMS_P2;Temp;Humidity;BMP_temperature;BMP_pressure;BME280_temperature;BME280_humidity;BME280_pressure;Samples;Min_cycle;Max_cycle;Signal;HPM_P1;HPM_P2
2023/01/20 00:00:55;;;;;;;6.63;1.70;;;21.00;99.90;;;;;;5037968;28;20244;-82
2023/01/20 00:03:29;;;;;;;5.85;2.05;;;21.10;99.90;;;;;;5027447;28;20223;-81
2023/01/20 00:06:00;;;;;;;9.45;1.60;;;21.10;99.90;;;;;;5025811;28;20197;-83
2023/01/20 00:08:34;;;;;;;5.78;1.70;;;21.20;99.90;;;;;;5020730;28;20281;-81
2023/01/20 00:11:10;;;;;;;5.75;1.48;;;21.30;99.90;;;;;;5025620;28;20201;-81
2023/01/20 00:13:43;;;;;;;3.70;1.02;;;21.20;99.90;;;;;;5024502;28;20354;-84
2023/01/20 00:16:16;;;;;;;4.30;0.95;;;21.20;99.90;;;;;;5024018;28;20715;-82
2023/01/20 00:18:47;;;;;;;3.35;1.05;;;21.30;99.90;;;;;;5036977;28;20283;-82
2023/01/20 00:21:18;;;;;;;5.35;1.15;;;21.30;99.90;;;;;;5029786;28;20209;-83
2023/01/20 00:23:49;;;;;;;3.95;0.93;;;21.30;99.90;;;;;;5028622;28;20715;-82
2023/01/20 00:26:22;;;;;;;4.82;1.00;;;21.20;99.90;;;;;;5030207;28;20213;-82
2023/01/20 00:28:56;;;;;;;5.13;1.10;;;21.20;99.90;;;;;;5030502;28;20189;-81
2023/01/20 00:31:30;;;;;;;4.25;1.13;;;21.20;99.90;;;;;;5028411;28;20200;-82
2023/01/20 00:34:02;;;;;;;3.75;1.00;;;21.20;99.90;;;;;;5031403;28;20188;-82
2023/01/20 00:36:34;;;;;;;5.13;0.95;;;21.30;99.90;;;;;;5016362;28;20221;-81
2023/01/20 00:39:06;;;;;;;2.40;0.77;;;21.30;99.90;;;;;;5028942;28;20197;-81
2023/01/20 00:41:37;;;;;;;3.45;0.88;;;21.40;99.90;;;;;;5023990;28;20287;-81
2023/01/20 00:44:10;;;;;;;5.53;1.00;;;21.40;99.90;;;;;;5022968;28;20274;-81
2023/01/20 00:46:43;;;;;;;5.72;1.00;;;21.50;99.90;;;;;;5017936;28;20727;-81
2023/01/20 00:49:15;;;;;;;4.13;0.90;;;21.60;99.90;;;;;;5020546;28;20212;-80
2023/01/20 00:51:47;;;;;;;6.75;1.00;;;21.60;99.90;;;;;;5026626;28;20300;-81
2023/01/20 00:54:18;;;;;;;3.83;0.90;;;21.60;99.90;;;;;;5023260;28;20208;-81
2023/01/20 00:56:49;;;;;;;6.97;1.38;;;21.70;99.90;;;;;;5029608;28;20215;-82
2023/01/20 00:59:20;;;;;;;3.85;1.02;;;21.80;99.90;;;;;;5024325;28;20289;-83
2023/01/20 01:01:53;;;;;;;3.78;0.90;;;21.80;99.90;;;;;;5021882;28;20229;-82
2023/01/20 01:04:24;;;;;;;3.85;1.00;;;21.80;99.90;;;;;;5033625;28;20469;-82
2023/01/20 01:06:55;;;;;;;5.75;1.10;;;21.80;99.90;;;;;;5034590;28;20284;-82
2023/01/20 01:09:26;;;;;;;9.00;1.35;;;21.90;99.90;;;;;;5046042;28;20275;-83
2023/01/20 01:11:57;;;;;;;5.25;1.30;;;21.80;99.90;;;;;;5033400;28;20213;-82
2023/01/20 01:14:28;;;;;;;4.28;1.30;;;21.80;99.90;;;;;;5034047;28;20687;-82
2023/01/20 01:17:01;;;;;;;4.88;1.30;;;21.80;99.90;;;;;;5022701;28;20237;-82
2023/01/20 01:19:32;;;;;;;3.25;1.20;;;21.80;99.90;;;;;;5032058;28;20205;-81
2023/01/20 01:22:05;;;;;;;5.50;1.17;;;21.70;99.90;;;;;;5030456;28;20292;-82
2023/01/20 01:24:36;;;;;;;6.47;1.50;;;21.70;99.90;;;;;;5025696;28;20214;-82
2023/01/20 01:27:07;;;;;;;4.43;1.00;;;21.80;99.90;;;;;;5031756;28;20196;-82
2023/01/20 01:29:38;;;;;;;6.13;1.40;;;21.80;99.90;;;;;;5028900;28;20289;-83
2023/01/20 01:32:13;;;;;;;5.22;1.30;;;21.90;99.90;;;;;;5030419;28;20661;-82
2023/01/20 01:34:44;;;;;;;6.10;1.40;;;22.00;99.90;;;;;;5023815;28;20721;-83
2023/01/20 01:37:15;;;;;;;5.97;1.38;;;22.10;99.90;;;;;;5031436;28;20197;-82
2023/01/20 01:39:46;;;;;;;5.40;1.33;;;22.10;99.90;;;;;;5032710;28;20201;-82
2023/01/20 01:42:18;;;;;;;4.90;1.48;;;22.10;99.90;;;;;;5026411;28;20197;-82
2023/01/20 01:45:19;;;;;;;6.05;1.35;;;22.20;99.90;;;;;;5037414;28;20220;-82
2023/01/20 01:47:57;;;;;;;3.45;1.10;;;22.20;99.90;;;;;;5031023;28;20225;-82
2023/01/20 01:50:31;;;;;;;6.32;1.33;;;22.20;99.90;;;;;;5017634;28;20193;-81
2023/01/20 01:53:03;;;;;;;5.20;1.67;;;22.20;99.90;;;;;;5024903;28;20225;-82
2023/01/20 01:55:38;;;;;;;4.75;1.20;;;22.20;99.90;;;;;;5032489;28;20237;-82
2023/01/20 01:58:10;;;;;;;3.63;1.23;;;22.20;99.90;;;;;;5024915;28;20569;-82
2023/01/20 02:00:42;;;;;;;5.75;1.10;;;22.30;99.90;;;;;;5022093;28;20247;-82
2023/01/20 02:03:15;;;;;;;6.50;1.63;;;22.30;99.90;;;;;;5031124;28;20204;-82
2023/01/20 02:05:48;;;;;;;4.18;0.98;;;22.20;99.90;;;;;;5030270;28;20198;-82
2023/01/20 02:08:19;;;;;;;4.97;1.10;;;22.20;99.90;;;;;;5026694;28;20200;-81
2023/01/20 02:10:51;;;;;;;5.60;1.30;;;22.10;99.90;;;;;;5035300;28;20550;-82
2023/01/20 02:13:24;;;;;;;8.35;1.40;;;22.10;99.90;;;;;;5031420;28;20561;-78
2023/01/20 02:16:06;;;;;;;4.22;1.13;;;22.00;99.90;;;;;;5019718;28;20241;-82
2023/01/20 02:18:52;;;;;;;4.95;1.20;;;21.90;99.90;;;;;;5014101;28;20205;-82
2023/01/20 02:22:05;;;;;;;5.70;1.15;;;21.90;99.90;;;;;;5033525;28;20217;-82
2023/01/20 02:25:01;;;;;;;8.65;1.38;;;21.80;99.90;;;;;;5022349;28;20200;-82
2023/01/20 02:28:09;;;;;;;6.32;1.50;;;21.80;99.90;;;;;;5017827;28;20248;-83
2023/01/20 02:31:16;;;;;;;6.80;1.30;;;21.80;99.90;;;;;;5018610;28;20193;-86
2023/01/20 02:33:56;;;;;;;6.75;1.67;;;21.80;99.90;;;;;;4990348;28;20198;-85
2023/01/20 02:36:35;;;;;;;6.63;1.20;;;21.80;99.90;;;;;;5029714;28;20197;-85
2023/01/20 02:39:17;;;;;;;6.45;1.20;;;21.70;99.90;;;;;;5025722;28;20197;-85
2023/01/20 02:41:58;;;;;;;4.25;1.50;;;21.70;99.90;;;;;;5035657;28;20233;-84
2023/01/20 02:44:36;;;;;;;3.45;0.98;;;21.70;99.90;;;;;;5029646;28;20189;-84
2023/01/20 02:47:14;;;;;;;4.40;1.17;;;21.70;99.90;;;;;;5023695;28;20256;-86
2023/01/20 02:49:54;;;;;;;5.45;1.05;;;21.70;99.90;;;;;;5008299;28;20193;-86
2023/01/20 02:52:27;;;;;;;3.72;0.93;;;21.70;99.90;;;;;;5038867;28;20220;-86
2023/01/20 02:55:01;;;;;;;4.90;1.00;;;21.70;99.90;;;;;;5022279;28;20264;-84
2023/01/20 02:57:39;;;;;;;2.38;0.90;;;21.80;99.90;;;;;;5031904;28;20659;-84
2023/01/20 03:00:16;;;;;;;6.07;2.03;;;21.80;99.90;;;;;;5029857;28;20245;-86
2023/01/20 03:02:52;;;;;;;5.45;1.60;;;21.80;99.90;;;;;;5040490;28;20314;-85
2023/01/20 03:05:30;;;;;;;4.82;1.23;;;21.80;99.90;;;;;;5036597;28;20777;-86
2023/01/20 03:08:04;;;;;;;3.75;1.50;;;21.90;99.90;;;;;;5043212;28;20304;-86
2023/01/20 03:10:39;;;;;;;3.67;1.33;;;22.00;99.90;;;;;;5033780;28;20273;-86
2023/01/20 03:13:17;;;;;;;3.03;0.95;;;22.10;99.90;;;;;;5040319;28;20213;-85
2023/01/20 03:15:59;;;;;;;2.58;1.05;;;22.20;99.90;;;;;;5042643;28;20284;-86
2023/01/20 03:18:32;;;;;;;4.15;1.10;;;22.30;99.90;;;;;;5023797;28;20200;-86
2023/01/20 03:21:06;;;;;;;3.67;1.05;;;22.50;99.90;;;;;;5023466;28;20235;-86
2023/01/20 03:23:39;;;;;;;4.78;0.82;;;22.50;99.90;;;;;;5027292;28;20228;-86
2023/01/20 03:26:12;;;;;;;5.13;1.23;;;22.60;99.90;;;;;;5029661;28;20646;-87
2023/01/20 03:28:45;;;;;;;3.35;1.05;;;22.70;99.90;;;;;;5027890;28;20217;-85
2023/01/20 03:31:20;;;;;;;3.63;1.20;;;22.80;99.90;;;;;;5021769;28;20238;-84
2023/01/20 03:33:54;;;;;;;3.22;1.00;;;22.80;99.90;;;;;;5028200;28;20228;-85
2023/01/20 03:36:30;;;;;;;3.83;0.98;;;22.80;99.90;;;;;;5028875;28;20207;-86
2023/01/20 03:39:01;;;;;;;3.35;1.20;;;22.80;99.90;;;;;;5029793;28;20201;-87
2023/01/20 03:41:43;;;;;;;5.55;1.00;;;22.70;99.90;;;;;;5031835;28;20654;-86
2023/01/20 03:44:18;;;;;;;3.53;1.00;;;22.70;99.90;;;;;;5026186;28;20250;-85
2023/01/20 03:46:58;;;;;;;4.15;1.10;;;22.70;99.90;;;;;;5020882;28;20280;-85
2023/01/20 03:49:34;;;;;;;4.68;1.02;;;22.60;99.90;;;;;;5021714;28;20532;-83
2023/01/20 03:52:13;;;;;;;5.00;1.30;;;22.50;99.90;;;;;;5020547;28;20277;-86
2023/01/20 03:54:51;;;;;;;5.28;1.20;;;22.40;99.90;;;;;;5032030;28;20304;-85
2023/01/20 03:57:27;;;;;;;4.97;1.10;;;22.30;99.90;;;;;;5027240;28;20189;-85
2023/01/20 04:00:01;;;;;;;3.85;1.10;;;22.30;99.90;;;;;;5017162;28;20296;-86
2023/01/20 04:02:35;;;;;;;4.68;1.02;;;22.10;99.90;;;;;;5030854;28;20232;-85
2023/01/20 04:05:09;;;;;;;6.65;1.40;;;22.00;99.90;;;;;;5013925;28;20251;-83
2023/01/20 04:07:44;;;;;;;8.65;1.08;;;21.90;99.90;;;;;;5023949;28;20300;-84
2023/01/20 04:10:20;;;;;;;3.40;1.15;;;21.80;99.90;;;;;;5032543;28;20284;-85
2023/01/20 04:12:53;;;;;;;8.75;1.58;;;21.90;99.90;;;;;;5032922;28;20715;-86
2023/01/20 04:15:26;;;;;;;7.30;1.30;;;22.00;99.90;;;;;;5025766;28;20719;-85
2023/01/20 04:17:58;;;;;;;5.05;1.20;;;22.00;99.90;;;;;;5022107;28;20221;-84
2023/01/20 04:20:29;;;;;;;4.85;1.25;;;22.00;99.90;;;;;;5034606;28;20372;-81
2023/01/20 04:23:02;;;;;;;7.07;1.70;;;22.00;99.90;;;;;;5036111;28;20255;-83
2023/01/20 04:25:34;;;;;;;4.07;1.50;;;22.00;99.90;;;;;;5017408;28;20308;-84
2023/01/20 04:28:06;;;;;;;5.57;1.80;;;22.10;99.90;;;;;;5033682;28;20339;-86
2023/01/20 04:30:37;;;;;;;5.53;1.75;;;22.10;99.90;;;;;;5025822;28;20229;-87
2023/01/20 04:33:09;;;;;;;6.40;1.38;;;22.20;99.90;;;;;;5021633;28;20189;-84
2023/01/20 04:35:40;;;;;;;5.68;1.25;;;22.20;99.90;;;;;;5023162;28;20236;-85
2023/01/20 04:38:15;;;;;;;6.50;1.35;;;22.30;99.90;;;;;;5037974;28;20221;-83
2023/01/20 04:40:46;;;;;;;6.55;1.02;;;22.30;99.90;;;;;;5034025;28;20259;-84
2023/01/20 04:43:17;;;;;;;6.40;1.13;;;22.20;99.90;;;;;;5029647;28;20616;-85
2023/01/20 04:45:48;;;;;;;5.95;1.17;;;22.20;99.90;;;;;;5028547;28;20194;-84
2023/01/20 04:48:20;;;;;;;6.95;1.08;;;22.20;99.90;;;;;;5030357;28;20212;-84
2023/01/20 04:50:51;;;;;;;4.60;0.95;;;22.30;99.90;;;;;;5032010;28;20225;-84
2023/01/20 04:53:24;;;;;;;2.72;0.90;;;22.30;99.90;;;;;;5030422;28;20216;-84
2023/01/20 04:55:55;;;;;;;3.97;0.95;;;22.40;99.90;;;;;;5029596;28;20324;-86
2023/01/20 04:58:26;;;;;;;4.07;1.00;;;22.50;99.90;;;;;;5018090;28;20584;-83
2023/01/20 05:00:58;;;;;;;5.22;1.20;;;22.70;99.90;;;;;;5016176;28;20225;-84
2023/01/20 05:03:29;;;;;;;4.43;0.98;;;22.70;99.90;;;;;;5024674;28;20221;-85
2023/01/20 05:06:00;;;;;;;3.72;1.20;;;22.70;99.90;;;;;;5030336;28;20276;-85
2023/01/20 05:08:33;;;;;;;4.75;1.27;;;22.70;99.90;;;;;;5016725;28;20281;-84
2023/01/20 05:11:05;;;;;;;4.35;1.30;;;22.80;99.90;;;;;;5027190;28;20204;-84
2023/01/20 05:13:38;;;;;;;4.30;1.00;;;22.80;99.90;;;;;;5031710;28;20212;-83
2023/01/20 05:16:10;;;;;;;4.78;1.10;;;22.80;99.90;;;;;;5026602;28;20201;-81
2023/01/20 05:18:41;;;;;;;4.15;0.90;;;22.80;99.90;;;;;;5026023;28;20287;-81
2023/01/20 05:21:13;;;;;;;6.70;0.80;;;22.90;99.90;;;;;;5015632;28;20765;-82
2023/01/20 05:23:45;;;;;;;5.18;1.08;;;22.90;99.90;;;;;;5027104;28;20201;-86
2023/01/20 05:26:16;;;;;;;3.65;1.00;;;23.00;99.90;;;;;;5030891;28;20198;-84
2023/01/20 05:28:48;;;;;;;4.82;1.20;;;22.90;99.90;;;;;;5042538;28;20193;-82
2023/01/20 05:31:20;;;;;;;6.25;1.33;;;23.00;99.90;;;;;;5021123;28;20224;-82
2023/01/20 05:33:51;;;;;;;5.05;1.17;;;23.00;99.90;;;;;;5026260;28;20248;-82
2023/01/20 05:36:22;;;;;;;5.28;0.90;;;22.90;99.90;;;;;;5032019;28;20601;-81
2023/01/20 05:38:56;;;;;;;4.28;1.13;;;22.80;99.90;;;;;;5030654;28;20684;-82
2023/01/20 05:41:29;;;;;;;5.30;1.10;;;22.70;99.90;;;;;;5029079;28;20287;-82
2023/01/20 05:44:00;;;;;;;3.63;0.88;;;22.70;99.90;;;;;;5032686;28;20562;-82
2023/01/20 05:46:30;;;;;;;7.00;1.02;;;22.70;99.90;;;;;;5021948;28;20404;-82
2023/01/20 05:49:01;;;;;;;4.18;0.95;;;22.70;99.90;;;;;;5028292;28;20202;-82
2023/01/20 05:51:33;;;;;;;3.38;0.80;;;22.60;99.90;;;;;;5033578;28;20205;-82
2023/01/20 05:54:05;;;;;;;2.85;0.93;;;22.60;99.90;;;;;;5025698;28;20194;-82
2023/01/20 05:56:37;;;;;;;6.30;0.98;;;22.60;99.90;;;;;;5014904;28;20272;-82
2023/01/20 05:59:08;;;;;;;5.00;1.00;;;22.60;99.90;;;;;;5027692;28;20203;-82
2023/01/20 06:01:39;;;;;;;4.68;0.95;;;22.60;99.90;;;;;;5018580;28;20222;-81
2023/01/20 06:04:11;;;;;;;3.35;0.88;;;22.50;99.90;;;;;;5032813;28;20204;-82
2023/01/20 06:06:41;;;;;;;4.22;1.30;;;22.40;99.90;;;;;;5034098;28;20197;-83
2023/01/20 06:09:14;;;;;;;3.95;0.90;;;22.40;99.90;;;;;;5031731;28;20197;-82
2023/01/20 06:11:45;;;;;;;4.97;1.40;;;22.30;99.90;;;;;;5032061;28;20200;-81
2023/01/20 06:14:17;;;;;;;3.42;1.10;;;22.30;99.90;;;;;;5023495;28;20657;-82
2023/01/20 06:16:48;;;;;;;2.95;1.00;;;22.40;99.90;;;;;;5029794;28;20197;-81
2023/01/20 06:19:19;;;;;;;3.83;0.70;;;22.40;99.90;;;;;;5014584;28;20225;-81
2023/01/20 06:21:52;;;;;;;5.43;1.15;;;22.30;99.90;;;;;;5028481;28;20304;-81
2023/01/20 06:24:27;;;;;;;5.65;1.00;;;22.40;99.90;;;;;;5024049;28;20197;-81
2023/01/20 06:26:58;;;;;;;5.07;1.20;;;22.40;99.90;;;;;;5033659;28;20208;-80
2023/01/20 06:29:29;;;;;;;3.97;1.02;;;22.40;99.90;;;;;;5033459;28;20605;-81
2023/01/20 06:32:00;;;;;;;4.90;1.05;;;22.40;99.90;;;;;;5033587;28;20201;-81
2023/01/20 06:34:30;;;;;;;5.38;1.40;;;22.40;99.90;;;;;;5034848;28;20280;-81
2023/01/20 06:37:02;;;;;;;3.90;1.15;;;22.40;99.90;;;;;;5044151;28;20281;-80
2023/01/20 06:39:35;;;;;;;4.30;1.25;;;22.40;99.90;;;;;;5012807;28;20630;-80
2023/01/20 06:42:06;;;;;;;4.72;1.40;;;22.50;99.90;;;;;;5025312;28;20228;-80
2023/01/20 06:44:37;;;;;;;5.00;1.65;;;22.50;99.90;;;;;;5033320;28;20201;-81
2023/01/20 06:47:08;;;;;;;5.35;1.70;;;22.40;99.90;;;;;;5030308;28;20197;-81
2023/01/20 06:49:39;;;;;;;4.93;1.65;;;22.40;99.90;;;;;;5030347;28;20205;-81
2023/01/20 06:52:10;;;;;;;5.05;1.80;;;22.40;99.90;;;;;;5021434;28;20649;-81
2023/01/20 06:54:43;;;;;;;6.40;2.42;;;22.40;99.90;;;;;;5030238;28;20240;-81
2023/01/20 06:57:14;;;;;;;5.85;1.60;;;22.40;99.90;;;;;;5031100;28;20198;-81
2023/01/20 06:59:45;;;;;;;10.02;1.63;;;22.40;99.90;;;;;;5031265;28;20206;-81
2023/01/20 07:02:15;;;;;;;4.20;1.20;;;22.40;99.90;;;;;;5030116;28;20231;-81
2023/01/20 07:04:46;;;;;;;3.95;1.23;;;22.40;99.90;;;;;;5030535;28;20281;-81
2023/01/20 07:07:17;;;;;;;4.15;0.93;;;22.40;99.90;;;;;;5034496;28;20192;-82
2023/01/20 07:09:50;;;;;;;5.57;1.60;;;22.30;99.90;;;;;;5049063;28;20203;-81
2023/01/20 07:12:21;;;;;;;6.18;1.50;;;22.30;99.90;;;;;;5024050;28;20197;-82
2023/01/20 07:14:52;;;;;;;6.03;1.10;;;22.30;99.90;;;;;;5032509;28;20207;-82
2023/01/20 07:17:23;;;;;;;4.03;1.30;;;22.20;99.90;;;;;;5031087;28;20683;-81
2023/01/20 07:19:54;;;;;;;7.30;1.48;;;22.20;99.90;;;;;;5012681;28;20202;-81
2023/01/20 07:22:25;;;;;;;3.67;0.75;;;22.10;99.90;;;;;;5015369;28;20224;-81
2023/01/20 07:24:57;;;;;;;1.92;0.85;;;22.10;99.90;;;;;;5012545;28;20277;-81
2023/01/20 07:27:28;;;;;;;5.38;1.00;;;22.10;99.90;;;;;;5015356;28;20201;-81
2023/01/20 07:29:59;;;;;;;4.22;1.25;;;22.10;99.90;;;;;;5031729;28;20205;-81
2023/01/20 07:32:33;;;;;;;2.95;1.02;;;22.10;99.90;;;;;;5029892;28;20672;-81
2023/01/20 07:35:04;;;;;;;4.78;1.40;;;22.10;99.90;;;;;;5032246;28;20207;-81
2023/01/20 07:37:35;;;;;;;5.20;1.05;;;22.10;99.90;;;;;;5029178;28;20774;-81
2023/01/20 07:40:09;;;;;;;2.75;0.77;;;22.10;99.90;;;;;;5032197;28;20286;-81
2023/01/20 07:42:41;;;;;;;4.22;1.10;;;22.00;99.90;;;;;;5036523;28;20209;-81
2023/01/20 07:45:12;;;;;;;6.63;1.17;;;22.00;99.90;;;;;;5038863;28;20577;-81
2023/01/20 07:47:43;;;;;;;3.15;0.88;;;22.10;99.90;;;;;;5035722;28;20277;-81
2023/01/20 07:50:14;;;;;;;4.55;1.10;;;22.10;99.90;;;;;;5033320;28;20205;-80
2023/01/20 07:52:45;;;;;;;4.97;1.00;;;22.10;99.90;;;;;;5043880;28;20223;-81
2023/01/20 07:55:20;;;;;;;6.70;1.23;;;22.10;99.90;;;;;;5040820;28;20244;-81
2023/01/20 07:57:51;;;;;;;4.00;1.63;;;22.00;99.90;;;;;;5032124;28;20223;-81
2023/01/20 08:00:24;;;;;;;5.53;1.30;;;22.00;99.90;;;;;;5037387;28;20197;-81
2023/01/20 08:02:55;;;;;;;4.95;1.30;;;22.00;99.90;;;;;;5031136;28;20235;-81
2023/01/20 08:05:27;;;;;;;3.80;1.60;;;22.00;99.90;;;;;;5039897;28;20207;-81
2023/01/20 08:08:00;;;;;;;7.43;1.00;;;22.00;99.90;;;;;;5030984;28;20246;-81
2023/01/20 08:10:33;;;;;;;3.33;1.10;;;22.00;99.90;;;;;;5030782;28;20201;-81
2023/01/20 08:13:04;;;;;;;7.88;1.35;;;22.00;99.90;;;;;;5030838;28;20280;-81
2023/01/20 08:15:36;;;;;;;4.28;1.20;;;22.00;99.90;;;;;;5028571;28;20207;-81
2023/01/20 08:18:07;;;;;;;10.70;3.35;;;22.00;99.90;;;;;;5035471;28;20200;-81
2023/01/20 08:20:42;;;;;;;10.02;1.88;;;22.00;99.90;;;;;;5030301;28;20207;-81
2023/01/20 08:23:13;;;;;;;8.45;1.38;;;22.00;99.90;;;;;;5029996;28;20228;-81
2023/01/20 08:25:46;;;;;;;5.05;1.15;;;22.00;99.90;;;;;;5034490;28;20563;-81
2023/01/20 08:28:17;;;;;;;2.97;0.90;;;22.00;99.90;;;;;;5028987;28;20284;-81
2023/01/20 08:30:47;;;;;;;3.78;1.17;;;22.00;99.90;;;;;;5030299;28;20284;-82
2023/01/20 08:33:18;;;;;;;4.03;0.85;;;21.90;99.90;;;;;;5029108;28;20204;-80
2023/01/20 08:35:49;;;;;;;5.32;1.20;;;21.90;99.90;;;;;;5029976;28;20283;-81
2023/01/20 08:38:20;;;;;;;3.72;1.20;;;21.90;99.90;;;;;;5012681;28;20198;-80
2023/01/20 08:40:53;;;;;;;6.32;1.40;;;22.00;99.90;;;;;;5010730;28;20218;-80
2023/01/20 08:43:24;;;;;;;5.40;2.63;;;21.90;99.90;;;;;;5022014;28;20231;-81
2023/01/20 08:46:03;;;;;;;4.80;2.38;;;21.90;99.90;;;;;;5021677;28;20203;-81
2023/01/20 08:48:34;;;;;;;3.85;1.90;;;21.90;99.90;;;;;;5033996;28;20284;-80
2023/01/20 08:51:08;;;;;;;4.43;1.90;;;21.80;99.90;;;;;;5035607;28;20212;-80
2023/01/20 08:53:39;;;;;;;3.70;1.45;;;21.80;99.90;;;;;;5022711;28;20285;-80
2023/01/20 08:56:13;;;;;;;6.07;1.60;;;21.80;99.90;;;;;;5030211;28;20732;-80
2023/01/20 08:58:44;;;;;;;3.20;1.40;;;21.80;99.90;;;;;;5029913;28;20197;-80
2023/01/20 09:01:17;;;;;;;5.32;2.10;;;21.70;99.90;;;;;;5022113;28;20636;-80
2023/01/20 09:03:48;;;;;;;6.65;2.63;;;21.70;99.90;;;;;;5023240;28;20221;-80
2023/01/20 09:06:20;;;;;;;5.40;2.10;;;21.70;99.90;;;;;;5025631;28;20204;-81
2023/01/20 09:08:51;;;;;;;5.72;2.10;;;21.70;99.90;;;;;;5030557;28;20672;-80
2023/01/20 09:11:26;;;;;;;7.93;2.40;;;21.60;99.90;;;;;;5030138;28;20745;-80
2023/01/20 09:13:58;;;;;;;4.25;1.90;;;21.60;99.90;;;;;;5030482;28;20209;-81
2023/01/20 09:16:30;;;;;;;4.85;1.80;;;21.60;99.90;;;;;;5029279;28;20281;-80
2023/01/20 09:19:01;;;;;;;5.55;1.90;;;21.60;99.90;;;;;;5022446;28;20276;-80
2023/01/20 09:21:33;;;;;;;4.53;1.70;;;21.60;99.90;;;;;;5019354;28;20237;-81
2023/01/20 09:24:04;;;;;;;5.43;2.00;;;21.60;99.90;;;;;;5027243;28;20229;-81
2023/01/20 09:26:40;;;;;;;5.75;1.77;;;21.60;99.90;;;;;;5034160;28;20197;-81
2023/01/20 09:29:14;;;;;;;6.18;2.40;;;21.50;99.90;;;;;;5033810;28;20211;-81
2023/01/20 09:31:47;;;;;;;5.45;2.30;;;21.50;99.90;;;;;;5026024;28;20197;-80
2023/01/20 09:34:23;;;;;;;6.65;2.20;;;21.50;99.90;;;;;;5034373;28;20208;-81
2023/01/20 09:36:55;;;;;;;6.05;1.90;;;21.50;99.90;;;;;;5018946;28;20609;-81
2023/01/20 09:45:26;;;;;;;3.75;1.60;;;21.50;99.90;;;;;;5034346;28;20671;-81
2023/01/20 09:48:03;;;;;;;6.68;1.45;;;21.50;99.90;;;;;;5033649;28;20727;-81
2023/01/20 09:53:52;;;;;;;3.60;1.33;;;21.50;99.90;;;;;;5036384;28;20251;-81
2023/01/20 09:56:27;;;;;;;7.13;1.35;;;21.50;99.90;;;;;;5036333;28;20222;-80
2023/01/20 09:59:08;;;;;;;5.65;1.40;;;21.50;99.90;;;;;;5040025;28;20643;-81
2023/01/20 10:01:44;;;;;;;4.25;1.25;;;21.60;99.90;;;;;;5035129;28;20628;-80
2023/01/20 10:04:18;;;;;;;6.15;1.40;;;21.60;99.90;;;;;;5035926;28;20726;-81
2023/01/20 10:06:53;;;;;;;4.82;1.45;;;21.60;99.90;;;;;;5034977;28;20262;-80
2023/01/20 10:09:31;;;;;;;3.47;1.30;;;21.60;99.90;;;;;;5032889;28;20342;-80
2023/01/20 10:12:10;;;;;;;5.13;1.70;;;21.60;99.90;;;;;;5021419;28;20616;-81
2023/01/20 10:14:48;;;;;;;6.10;2.25;;;21.60;99.90;;;;;;5025509;28;20221;-81
2023/01/20 10:17:22;;;;;;;6.70;2.35;;;21.60;99.90;;;;;;5033087;28;20211;-81
2023/01/20 10:19:57;;;;;;;5.28;1.90;;;21.60;99.90;;;;;;5031769;28;20730;-82
2023/01/20 10:22:35;;;;;;;8.73;2.08;;;21.60;99.90;;;;;;5038657;28;20223;-82
2023/01/20 10:25:11;;;;;;;6.43;1.95;;;21.50;99.90;;;;;;5036566;28;20201;-82
2023/01/20 10:27:51;;;;;;;5.57;1.73;;;21.50;99.90;;;;;;5025857;28;20284;-81
2023/01/20 10:30:29;;;;;;;5.05;2.00;;;21.50;99.90;;;;;;5035730;28;20212;-81
2023/01/20 10:33:05;;;;;;;4.70;1.85;;;21.50;99.90;;;;;;5026904;28;20223;-80
2023/01/20 10:35:40;;;;;;;4.97;1.80;;;21.50;99.90;;;;;;5030659;28;20197;-80
2023/01/20 10:38:19;;;;;;;4.07;1.15;;;21.50;99.90;;;;;;5027942;28;20193;-80
2023/01/20 10:40:57;;;;;;;3.85;1.10;;;21.50;99.90;;;;;;5033899;28;20217;-80
2023/01/20 10:43:28;;;;;;;4.28;1.15;;;21.40;99.90;;;;;;5032414;28;20602;-81
2023/01/20 10:46:34;;;;;;;3.80;1.00;;;21.30;99.90;;;;;;5033633;28;20197;-81
2023/01/20 10:49:37;;;;;;;4.07;1.00;;;21.30;99.90;;;;;;5019442;28;20205;-80
2023/01/20 10:52:25;;;;;;;5.55;1.17;;;21.20;99.90;;;;;;5031867;28;20209;-80
2023/01/20 10:55:06;;;;;;;4.22;1.15;;;21.10;99.90;;;;;;5032065;28;20304;-81
2023/01/20 10:57:38;;;;;;;4.75;1.40;;;21.00;99.90;;;;;;5025446;28;20284;-81
2023/01/20 11:00:18;;;;;;;5.53;1.50;;;20.90;99.90;;;;;;5035009;28;20212;-81
2023/01/20 11:02:52;;;;;;;5.10;1.30;;;20.90;99.90;;;;;;5033998;28;20221;-82
2023/01/20 11:05:26;;;;;;;5.32;1.33;;;20.80;99.90;;;;;;5047292;28;20288;-82
2023/01/20 11:08:00;;;;;;;3.17;1.00;;;20.80;99.90;;;;;;5017213;28;20204;-81
2023/01/20 11:10:33;;;;;;;4.18;1.00;;;20.70;99.90;;;;;;5033523;28;20197;-81
2023/01/20 11:13:05;;;;;;;3.72;0.90;;;20.70;99.90;;;;;;5033893;28;20653;-82
2023/01/20 11:15:39;;;;;;;7.03;1.60;;;20.70;99.90;;;;;;5030208;28;20198;-81
2023/01/20 11:18:29;;;;;;;3.72;1.05;;;20.70;99.90;;;;;;5028379;28;20200;-81
2023/01/20 11:21:05;;;;;;;4.40;1.10;;;20.70;99.90;;;;;;5031878;28;20208;-81
2023/01/20 11:23:41;;;;;;;4.00;1.23;;;20.80;99.90;;;;;;5031699;28;20228;-80
2023/01/20 11:26:23;;;;;;;4.43;0.90;;;20.80;99.90;;;;;;5032101;28;20304;-81
2023/01/20 11:28:56;;;;;;;4.40;1.20;;;20.80;99.90;;;;;;5018801;28;20204;-82
2023/01/20 11:31:40;;;;;;;6.22;1.17;;;20.80;99.90;;;;;;5029966;28;20280;-81
2023/01/20 11:34:34;;;;;;;5.07;1.38;;;20.80;99.90;;;;;;5030658;28;20291;-82
2023/01/20 11:37:24;;;;;;;7.93;1.52;;;20.80;99.90;;;;;;5016892;28;20731;-82
2023/01/20 11:40:06;;;;;;;5.63;1.30;;;20.80;99.90;;;;;;5012504;28;20221;-82
2023/01/20 11:42:45;;;;;;;6.72;1.17;;;20.70;99.90;;;;;;5031321;28;20201;-82
2023/01/20 11:45:33;;;;;;;4.97;1.70;;;20.70;99.90;;;;;;5031360;28;20554;-82
2023/01/20 11:48:19;;;;;;;8.82;1.48;;;20.60;99.90;;;;;;5030709;28;20204;-82
2023/01/20 11:50:56;;;;;;;7.43;1.50;;;20.50;99.90;;;;;;5030267;28;20197;-82
2023/01/20 11:53:30;;;;;;;3.03;1.00;;;20.50;99.90;;;;;;5031502;28;20550;-82
2023/01/20 11:56:02;;;;;;;5.45;1.17;;;20.40;99.90;;;;;;5030111;28;20599;-81
2023/01/20 11:58:36;;;;;;;5.85;1.70;;;20.40;99.90;;;;;;5028832;28;20209;-82
2023/01/20 12:01:09;;;;;;;3.90;1.00;;;20.40;99.90;;;;;;5032187;28;20202;-82
2023/01/20 12:04:09;;;;;;;6.22;1.15;;;20.40;99.90;;;;;;5031174;28;20234;-83
2023/01/20 12:06:55;;;;;;;3.97;1.08;;;20.30;99.90;;;;;;5029118;28;20288;-83
2023/01/20 12:09:30;;;;;;;7.40;1.27;;;20.30;99.90;;;;;;5039433;28;20193;-82
2023/01/20 12:12:06;;;;;;;8.15;1.05;;;20.20;99.90;;;;;;5033995;28;20694;-82
2023/01/20 12:14:41;;;;;;;3.33;1.00;;;20.20;99.90;;;;;;5035671;28;20291;-82
2023/01/20 12:17:33;;;;;;;6.53;1.52;;;20.20;99.90;;;;;;5030963;28;20197;-82
2023/01/20 12:20:15;;;;;;;4.20;1.20;;;20.20;99.90;;;;;;5030374;28;20277;-83
2023/01/20 12:23:00;;;;;;;5.50;1.02;;;20.20;99.90;;;;;;5024002;28;20205;-83
2023/01/20 12:25:36;;;;;;;4.65;1.33;;;20.20;99.90;;;;;;5030841;28;20252;-83
2023/01/20 12:28:14;;;;;;;5.22;1.20;;;20.20;99.90;;;;;;5028486;28;20200;-83
2023/01/20 12:30:56;;;;;;;7.13;1.40;;;20.20;99.90;;;;;;5013347;28;20247;-83
2023/01/20 12:33:32;;;;;;;5.18;1.30;;;20.20;99.90;;;;;;5029826;28;20259;-83
2023/01/20 12:36:32;;;;;;;5.82;1.30;;;20.20;99.90;;;;;;5028714;28;20204;-83
2023/01/20 12:39:27;;;;;;;5.22;1.08;;;20.30;99.90;;;;;;5024643;28;20200;-82
2023/01/20 12:42:37;;;;;;;6.38;1.33;;;20.30;99.90;;;;;;5024622;28;20201;-82
2023/01/20 12:45:16;;;;;;;4.05;0.90;;;20.20;99.90;;;;;;5026707;28;20232;-83
2023/01/20 12:48:01;;;;;;;4.25;1.13;;;20.20;99.90;;;;;;5011959;28;20289;-83
2023/01/20 12:50:53;;;;;;;10.00;1.40;;;20.20;99.90;;;;;;5012064;28;20201;-83
2023/01/20 12:53:51;;;;;;;5.53;1.40;;;20.20;99.90;;;;;;5024517;28;20328;-83
2023/01/20 12:56:35;;;;;;;5.93;1.50;;;20.20;99.90;;;;;;5032141;28;20229;-79
2023/01/20 12:59:17;;;;;;;4.47;1.20;;;20.30;99.90;;;;;;5029861;28;20201;-81
2023/01/20 13:02:00;;;;;;;3.83;1.10;;;20.30;99.90;;;;;;5030139;28;20208;-82
2023/01/20 13:04:59;;;;;;;4.63;1.02;;;20.20;99.90;;;;;;5023756;28;20226;-83
2023/01/20 13:07:50;;;;;;;5.13;1.17;;;20.20;99.90;;;;;;5012243;28;20193;-79
2023/01/20 13:10:38;;;;;;;5.90;1.58;;;20.10;99.90;;;;;;5030307;28;20200;-80
2023/01/20 13:13:21;;;;;;;4.53;1.10;;;20.10;99.90;;;;;;5020622;28;20288;-82
2023/01/20 13:15:57;;;;;;;4.32;1.02;;;20.10;99.90;;;;;;5030651;28;20211;-81
2023/01/20 13:18:37;;;;;;;3.83;1.35;;;20.10;99.90;;;;;;5030827;28;20284;-82
2023/01/20 13:21:09;;;;;;;7.55;1.48;;;20.10;99.90;;;;;;5030048;28;20202;-81
2023/01/20 13:23:41;;;;;;;5.93;1.40;;;20.10;99.90;;;;;;5027171;28;20235;-81
2023/01/20 13:26:12;;;;;;;7.18;1.25;;;20.10;99.90;;;;;;5021504;28;20208;-81
2023/01/20 13:28:55;;;;;;;6.50;1.20;;;20.10;99.90;;;;;;5014068;28;20208;-81
2023/01/20 13:31:43;;;;;;;4.32;1.10;;;20.10;99.90;;;;;;5028575;28;20194;-81
2023/01/20 13:34:41;;;;;;;4.50;1.23;;;20.10;99.90;;;;;;5028833;28;20734;-82
2023/01/20 13:37:33;;;;;;;5.65;1.27;;;20.00;99.90;;;;;;5022326;28;20296;-82